Terminal Aerodrome Forecast
Issued by NWS

Home | Current Version | Previous Version | Text Only | Print | Product List | Glossary On
Versions: 1 2 3 4 5 6 7 8 9 10 11 12 13 14 15 16 17
000
FTUS43 KFGF 191600 AAC
TAFDVL
TAF AMD
KDVL 191607Z 1916/2012 17008KT 2SM BR OVC003
      TEMPO 1916/1920 1 1/2SM -FZDZ
     FM192000 18008KT P6SM OVC008
      AMD LTD TO CLD VIS AND WIND=

USA.gov is the U.S. government's official web portal to all federal, state and local government web resources and services.